Time;durP1;ratioP1;P1;durP2;ratioP2;P2;SDS_P1;SDS_P2;PMS_P1;PMS_P2;Temp;Humidity;BMP_temperature;BMP_pressure;BME280_temperature;BME280_humidity;BME280_pressure;Samples;Min_cycle;Max_cycle;Signal;HPM_P1;HPM_P2
2022/04/16 00:01:48;;;;;;;5.32;2.35;;;19.90;99.90;;;;;;5051377;28;20041;-65
2022/04/16 00:04:15;;;;;;;8.23;2.13;;;19.90;99.90;;;;;;5027654;28;20029;-67
2022/04/16 00:06:42;;;;;;;5.50;2.20;;;20.20;99.90;;;;;;5051152;28;20025;-66
2022/04/16 00:09:10;;;;;;;7.25;2.33;;;20.50;99.90;;;;;;5047993;28;20033;-66
2022/04/16 00:14:45;;;;;;;5.07;1.88;;;20.40;99.90;;;;;;5049319;28;20364;-66
2022/04/16 00:17:13;;;;;;;6.63;1.98;;;20.50;99.90;;;;;;5042198;28;20037;-66
2022/04/16 00:19:41;;;;;;;4.28;2.20;;;20.50;99.90;;;;;;5042257;28;20037;-66
2022/04/16 00:22:12;;;;;;;4.72;2.05;;;20.40;99.90;;;;;;5043619;28;20041;-66
2022/04/16 00:24:43;;;;;;;5.43;2.10;;;20.60;99.90;;;;;;5028325;28;20041;-66
2022/04/16 00:27:11;;;;;;;3.75;1.77;;;20.50;99.90;;;;;;5032398;28;20041;-66
2022/04/16 00:29:39;;;;;;;6.47;1.65;;;20.50;99.90;;;;;;5049834;28;20484;-66
2022/04/16 00:32:08;;;;;;;9.70;1.75;;;20.60;99.90;;;;;;5054204;28;20048;-66
2022/04/16 00:34:36;;;;;;;4.65;1.77;;;20.60;99.90;;;;;;5048917;28;20021;-66
2022/04/16 00:37:04;;;;;;;6.00;2.08;;;20.80;99.90;;;;;;5052313;28;20032;-66
2022/04/16 00:39:31;;;;;;;3.72;2.08;;;20.70;99.90;;;;;;5044670;28;20067;-67
2022/04/16 00:41:59;;;;;;;6.40;2.13;;;20.60;99.90;;;;;;5035915;28;20040;-67
2022/04/16 00:44:26;;;;;;;7.32;1.75;;;20.70;99.90;;;;;;5052129;28;20032;-67
2022/04/16 00:46:54;;;;;;;3.65;1.75;;;20.90;99.90;;;;;;5053976;28;20489;-66
2022/04/16 00:49:22;;;;;;;4.78;1.73;;;21.00;99.90;;;;;;5046530;28;20033;-66
2022/04/16 00:51:51;;;;;;;8.60;1.77;;;21.40;99.90;;;;;;5044742;28;20087;-66
2022/04/16 00:54:20;;;;;;;6.22;2.38;;;21.80;99.90;;;;;;5050355;28;20021;-66
2022/04/16 00:56:47;;;;;;;2.42;1.25;;;22.30;99.90;;;;;;5050313;28;20021;-67
2022/04/16 00:59:15;;;;;;;5.15;1.25;;;22.40;99.90;;;;;;5049051;28;20511;-67
2022/04/16 01:01:43;;;;;;;4.95;1.58;;;22.30;99.90;;;;;;5049965;28;20079;-66
2022/04/16 01:04:10;;;;;;;5.30;1.20;;;22.50;99.90;;;;;;5050903;28;20079;-66
2022/04/16 01:06:39;;;;;;;5.70;1.75;;;22.50;99.90;;;;;;5050252;28;20032;-66
2022/04/16 01:09:07;;;;;;;3.72;1.35;;;22.10;99.90;;;;;;5048290;28;20099;-66
2022/04/16 01:11:35;;;;;;;4.25;1.70;;;22.00;99.90;;;;;;5055976;28;20036;-66
2022/04/16 01:14:03;;;;;;;6.05;2.03;;;21.70;99.90;;;;;;5050305;28;20044;-66
2022/04/16 01:16:33;;;;;;;3.33;1.40;;;21.70;99.90;;;;;;5033281;28;20025;-66
2022/04/16 01:19:01;;;;;;;2.55;0.90;;;22.20;99.90;;;;;;5049562;28;20565;-67
2022/04/16 01:21:29;;;;;;;8.27;1.77;;;22.50;99.90;;;;;;5047364;28;20077;-66
2022/04/16 01:23:58;;;;;;;3.88;1.00;;;22.50;99.90;;;;;;5040177;28;20129;-66
2022/04/16 01:26:25;;;;;;;2.45;0.85;;;22.60;99.90;;;;;;5047778;28;20017;-66
2022/04/16 01:28:53;;;;;;;3.30;1.30;;;23.00;99.90;;;;;;5049254;28;20021;-67
2022/04/16 01:31:20;;;;;;;4.97;0.70;;;23.40;99.90;;;;;;5045437;28;20076;-66
2022/04/16 01:33:48;;;;;;;3.22;0.80;;;23.60;99.90;;;;;;5052124;28;20055;-67
2022/04/16 01:36:15;;;;;;;6.72;0.90;;;23.50;99.90;;;;;;5051069;28;20052;-66
2022/04/16 01:38:43;;;;;;;4.85;0.80;;;23.80;99.90;;;;;;5050806;28;20473;-67
2022/04/16 01:41:10;;;;;;;5.28;0.82;;;24.00;99.90;;;;;;5044760;28;20068;-67
2022/04/16 01:43:37;;;;;;;4.07;0.93;;;23.60;99.90;;;;;;5029969;28;20017;-67
2022/04/16 01:46:06;;;;;;;6.28;1.20;;;23.80;99.90;;;;;;5049697;28;20499;-67
2022/04/16 01:48:33;;;;;;;2.17;0.60;;;24.10;99.90;;;;;;5049798;28;20013;-67
2022/04/16 01:51:01;;;;;;;4.78;0.77;;;24.50;99.90;;;;;;5047273;28;20075;-66
2022/04/16 01:53:28;;;;;;;6.57;1.27;;;24.40;99.90;;;;;;5050470;28;20025;-67
2022/04/16 01:55:56;;;;;;;2.08;0.57;;;24.20;99.90;;;;;;5044232;28;20021;-67
2022/04/16 01:58:32;;;;;;;7.45;0.90;;;23.90;99.90;;;;;;5049195;28;20369;-66
2022/04/16 02:01:00;;;;;;;3.85;0.70;;;24.20;99.90;;;;;;5051567;28;20110;-66
2022/04/16 02:03:27;;;;;;;2.63;0.50;;;24.10;99.90;;;;;;5046807;28;20082;-67
2022/04/16 02:05:55;;;;;;;2.13;0.63;;;24.40;99.90;;;;;;5048126;28;20082;-67
2022/04/16 02:08:22;;;;;;;5.68;1.23;;;24.50;99.90;;;;;;5050002;28;20041;-67
2022/04/16 02:10:49;;;;;;;3.17;0.55;;;24.90;99.90;;;;;;5048383;28;20025;-67
2022/04/16 02:13:17;;;;;;;2.63;0.55;;;25.00;99.90;;;;;;5051790;28;20036;-67
2022/04/16 02:15:44;;;;;;;2.78;0.93;;;25.80;99.90;;;;;;5050332;28;20029;-67
2022/04/16 02:18:12;;;;;;;2.20;0.73;;;24.90;99.90;;;;;;5046492;28;20079;-67
2022/04/16 02:20:41;;;;;;;2.95;0.60;;;25.50;99.90;;;;;;5035035;28;20393;-67
2022/04/16 02:23:09;;;;;;;7.18;0.90;;;26.10;99.90;;;;;;5048996;28;20066;-67
2022/04/16 02:25:36;;;;;;;2.28;0.43;;;26.50;99.90;;;;;;5050763;28;20029;-67
2022/04/16 02:28:04;;;;;;;3.47;0.80;;;26.80;99.90;;;;;;5043356;28;20374;-67
2022/04/16 02:30:32;;;;;;;3.60;1.10;;;26.00;99.90;;;;;;5052175;28;20034;-67
2022/04/16 02:33:00;;;;;;;5.25;1.20;;;26.30;99.90;;;;;;5052443;28;20041;-67
2022/04/16 02:35:28;;;;;;;0.93;0.60;;;26.10;99.90;;;;;;5035043;28;20080;-67
2022/04/16 02:37:56;;;;;;;0.98;0.50;;;25.90;99.90;;;;;;5050501;28;20032;-67
2022/04/16 02:40:23;;;;;;;2.25;0.65;;;25.50;99.90;;;;;;5051247;28;20033;-67
2022/04/16 02:42:51;;;;;;;1.45;0.65;;;25.00;99.90;;;;;;5047913;28;20179;-67
2022/04/16 02:47:59;;;;;;;3.53;1.13;;;24.40;99.90;;;;;;5050091;28;20033;-67
2022/04/16 02:50:28;;;;;;;5.65;1.55;;;23.90;99.90;;;;;;5047184;28;20041;-67
2022/04/16 02:52:58;;;;;;;6.38;1.38;;;24.10;99.90;;;;;;5044955;28;20021;-67
2022/04/16 02:55:26;;;;;;;6.88;1.70;;;24.40;99.90;;;;;;5050482;28;20029;-67
2022/04/16 02:57:54;;;;;;;5.43;1.63;;;24.20;99.90;;;;;;5050183;28;20508;-66
2022/04/16 03:00:22;;;;;;;4.03;1.10;;;23.80;99.90;;;;;;5050905;28;20115;-67
2022/04/16 03:02:51;;;;;;;5.22;1.10;;;23.60;99.90;;;;;;5027923;28;20041;-67
2022/04/16 03:05:19;;;;;;;6.88;1.42;;;23.40;99.90;;;;;;5051761;28;20032;-67
2022/04/16 03:07:46;;;;;;;5.15;1.70;;;23.10;99.90;;;;;;5046183;28;20465;-66
2022/04/16 03:10:15;;;;;;;9.82;1.10;;;23.00;99.90;;;;;;5050058;28;20108;-67
2022/04/16 03:12:55;;;;;;;5.18;1.10;;;23.10;99.90;;;;;;5043870;28;20080;-66
2022/04/16 03:18:05;;;;;;;5.28;1.60;;;23.10;99.90;;;;;;5038041;28;20033;-67
2022/04/16 03:20:33;;;;;;;4.25;1.52;;;23.30;99.90;;;;;;5056432;28;20024;-67
2022/04/16 03:23:02;;;;;;;5.35;1.80;;;23.50;99.90;;;;;;5044373;28;20037;-67
2022/04/16 03:25:30;;;;;;;4.85;1.70;;;23.50;99.90;;;;;;5041688;28;20110;-67
2022/04/16 03:27:59;;;;;;;3.83;1.23;;;23.40;99.90;;;;;;5047223;28;20112;-66
2022/04/16 03:30:27;;;;;;;5.00;1.42;;;23.30;99.90;;;;;;5027001;28;20029;-66
2022/04/16 03:32:54;;;;;;;6.50;1.25;;;23.40;99.90;;;;;;5027870;28;20493;-66
2022/04/16 03:35:24;;;;;;;7.78;1.90;;;23.60;99.90;;;;;;5021594;28;20092;-66
2022/04/16 03:37:51;;;;;;;3.65;1.17;;;24.00;99.90;;;;;;5008970;28;20030;-66
2022/04/16 03:40:19;;;;;;;5.38;1.73;;;23.70;99.90;;;;;;5018061;28;20106;-66
2022/04/16 03:42:58;;;;;;;7.28;1.88;;;23.40;99.90;;;;;;5012910;28;20125;-66
2022/04/16 03:45:29;;;;;;;9.98;1.92;;;23.50;99.90;;;;;;5022864;28;20381;-66
2022/04/16 03:48:01;;;;;;;7.97;2.22;;;23.60;99.90;;;;;;5023586;28;20090;-66
2022/04/16 03:50:32;;;;;;;4.72;1.60;;;23.60;99.90;;;;;;5032071;28;20036;-68
2022/04/16 03:53:01;;;;;;;8.18;1.88;;;23.90;99.90;;;;;;5025596;28;20030;-68
2022/04/16 04:00:58;;;;;;;9.48;1.75;;;23.70;99.90;;;;;;5026650;28;20049;-68
2022/04/16 04:03:27;;;;;;;4.60;2.13;;;23.40;99.90;;;;;;5032472;28;20478;-68
2022/04/16 04:05:56;;;;;;;6.05;1.35;;;23.60;99.90;;;;;;5033815;28;20086;-68
2022/04/16 04:08:25;;;;;;;6.72;1.70;;;23.70;99.90;;;;;;5022102;28;20495;-69
2022/04/16 04:10:53;;;;;;;7.53;1.20;;;23.70;99.90;;;;;;5027511;28;20026;-68
2022/04/16 04:13:21;;;;;;;6.38;1.45;;;23.60;99.90;;;;;;5023477;28;20500;-68
2022/04/16 04:15:48;;;;;;;7.38;1.55;;;23.60;99.90;;;;;;5034418;28;20025;-65
2022/04/16 04:18:16;;;;;;;8.98;1.52;;;23.50;99.90;;;;;;5029923;28;20028;-66
2022/04/16 04:20:43;;;;;;;8.77;1.10;;;23.10;99.90;;;;;;5033198;28;20142;-67
2022/04/16 04:23:10;;;;;;;3.90;1.33;;;23.00;99.90;;;;;;5022010;28;20133;-68
2022/04/16 04:25:38;;;;;;;6.40;1.52;;;23.00;99.90;;;;;;5026871;28;20021;-68
2022/04/16 04:28:05;;;;;;;5.93;1.50;;;22.80;99.90;;;;;;5030948;28;20067;-69
2022/04/16 04:30:33;;;;;;;6.80;1.38;;;22.80;99.90;;;;;;5026685;28;20536;-69
2022/04/16 04:33:01;;;;;;;7.20;1.20;;;22.70;99.90;;;;;;5033778;28;20045;-69
2022/04/16 04:35:28;;;;;;;4.88;1.30;;;22.70;99.90;;;;;;5028279;28;20026;-69
2022/04/16 04:37:56;;;;;;;6.03;1.33;;;22.50;99.90;;;;;;5021974;28;20021;-68
2022/04/16 04:40:23;;;;;;;8.73;2.05;;;22.50;99.90;;;;;;5027719;28;20124;-69
2022/04/16 04:42:51;;;;;;;4.32;1.10;;;22.50;99.90;;;;;;5034590;28;20577;-68
2022/04/16 04:45:19;;;;;;;4.55;1.33;;;22.30;99.90;;;;;;5021246;28;20029;-68
2022/04/16 04:47:46;;;;;;;5.55;1.70;;;22.30;99.90;;;;;;5025147;28;20032;-68
2022/04/16 04:50:14;;;;;;;6.57;1.83;;;22.40;99.90;;;;;;5029044;28;20026;-68
2022/04/16 04:52:46;;;;;;;5.72;1.70;;;22.40;99.90;;;;;;5019401;28;20041;-68
2022/04/16 04:55:14;;;;;;;3.83;1.40;;;22.40;99.90;;;;;;5028808;28;20052;-68
2022/04/16 04:57:42;;;;;;;5.43;1.27;;;22.20;99.90;;;;;;5030778;28;20080;-69
2022/04/16 05:00:12;;;;;;;7.00;1.42;;;22.10;99.90;;;;;;5032030;28;20108;-69
2022/04/16 05:02:50;;;;;;;22.33;20.55;;;22.10;99.90;;;;;;5034492;28;20038;-69
2022/04/16 05:05:18;;;;;;;6.53;2.03;;;22.10;99.90;;;;;;5026899;28;20026;-68
2022/04/16 05:07:45;;;;;;;6.72;1.63;;;22.10;99.90;;;;;;5005753;28;20036;-69
2022/04/16 05:10:13;;;;;;;3.65;1.00;;;22.00;99.90;;;;;;5026859;28;20026;-69
2022/04/16 05:12:41;;;;;;;3.53;0.70;;;22.00;99.90;;;;;;5024512;28;20017;-69
2022/04/16 05:15:09;;;;;;;2.35;0.80;;;22.00;99.90;;;;;;5024147;28;20497;-69
2022/04/16 05:17:37;;;;;;;6.38;0.88;;;22.10;99.90;;;;;;5023263;28;20438;-69
2022/04/16 05:20:09;;;;;;;4.35;1.20;;;22.00;99.90;;;;;;5014047;28;20085;-68
2022/04/16 05:22:36;;;;;;;3.70;1.25;;;22.10;99.90;;;;;;5024850;28;20017;-69
2022/04/16 05:25:04;;;;;;;7.93;1.52;;;22.10;99.90;;;;;;5028132;28;20025;-69
2022/04/16 05:27:34;;;;;;;7.50;1.30;;;21.90;99.90;;;;;;5020523;28;20033;-69
2022/04/16 05:30:11;;;;;;;5.68;1.17;;;21.70;99.90;;;;;;5015415;28;20030;-69
2022/04/16 05:32:40;;;;;;;5.80;0.88;;;21.60;99.90;;;;;;5027111;28;20137;-69
2022/04/16 05:35:10;;;;;;;1.90;0.75;;;21.70;99.90;;;;;;5033790;28;20021;-69
2022/04/16 05:37:38;;;;;;;7.78;1.55;;;21.60;99.90;;;;;;5027350;28;20025;-69
2022/04/16 05:40:07;;;;;;;5.05;0.98;;;21.70;99.90;;;;;;5025011;28;20624;-69
2022/04/16 05:42:44;;;;;;;3.55;1.25;;;21.80;99.90;;;;;;5025574;28;20029;-69
2022/04/16 05:45:14;;;;;;;9.60;0.95;;;21.80;99.90;;;;;;5024683;28;20013;-69
2022/04/16 05:47:44;;;;;;;3.10;1.17;;;21.80;99.90;;;;;;5033165;28;20024;-69
2022/04/16 05:50:12;;;;;;;2.25;0.80;;;21.90;99.90;;;;;;5024649;28;20051;-68
2022/04/16 05:52:40;;;;;;;6.50;1.15;;;21.90;99.90;;;;;;5027147;28;20478;-68
2022/04/16 05:55:09;;;;;;;4.32;0.90;;;22.00;99.90;;;;;;5029146;28;20030;-68
2022/04/16 05:57:37;;;;;;;4.25;1.05;;;21.90;99.90;;;;;;5032455;28;20038;-69
2022/04/16 06:00:06;;;;;;;8.13;1.20;;;21.90;99.90;;;;;;5030479;28;20044;-69
2022/04/16 06:02:33;;;;;;;3.22;0.73;;;21.90;99.90;;;;;;5031389;28;20060;-69
2022/04/16 06:05:00;;;;;;;3.95;1.15;;;21.80;99.90;;;;;;5030895;28;20037;-70
2022/04/16 06:07:28;;;;;;;6.57;1.40;;;21.80;99.90;;;;;;5022584;28;20032;-69
2022/04/16 06:09:55;;;;;;;6.68;0.85;;;21.70;99.90;;;;;;5028197;28;20104;-69
2022/04/16 06:12:23;;;;;;;5.78;1.42;;;21.60;99.90;;;;;;5033839;28;20489;-68
2022/04/16 06:14:54;;;;;;;2.80;0.63;;;21.60;99.90;;;;;;5016989;28;20030;-69
2022/04/16 06:17:21;;;;;;;5.72;1.00;;;21.50;99.90;;;;;;5012932;28;20029;-69
2022/04/16 06:19:48;;;;;;;3.83;0.80;;;21.50;99.90;;;;;;5025975;28;20355;-69
2022/04/16 06:22:16;;;;;;;5.68;1.27;;;21.60;99.90;;;;;;5025444;28;20025;-69
2022/04/16 06:24:43;;;;;;;4.47;1.33;;;21.60;99.90;;;;;;5023552;28;20073;-69
2022/04/16 06:27:11;;;;;;;4.78;1.00;;;21.50;99.90;;;;;;5022634;28;20045;-69
2022/04/16 06:29:38;;;;;;;3.88;1.02;;;21.60;99.90;;;;;;5025412;28;20021;-70
2022/04/16 06:32:06;;;;;;;5.25;1.63;;;21.60;99.90;;;;;;5019847;28;20053;-67
2022/04/16 06:34:34;;;;;;;4.32;1.02;;;21.60;99.90;;;;;;5001954;28;20029;-68
2022/04/16 06:37:01;;;;;;;6.63;1.30;;;21.70;99.90;;;;;;5015604;28;20038;-68
2022/04/16 06:39:28;;;;;;;5.88;1.17;;;21.70;99.90;;;;;;5018634;28;20393;-68
2022/04/16 06:41:55;;;;;;;5.53;1.52;;;21.50;99.90;;;;;;5019820;28;20033;-67
2022/04/16 06:44:23;;;;;;;3.40;0.95;;;21.40;99.90;;;;;;5013983;28;20393;-68
2022/04/16 06:46:50;;;;;;;3.97;1.15;;;21.40;99.90;;;;;;5012335;28;20538;-68
2022/04/16 06:49:18;;;;;;;4.50;0.85;;;21.40;99.90;;;;;;5016420;28;20108;-68
2022/04/16 06:51:45;;;;;;;5.25;0.80;;;21.40;99.90;;;;;;5029474;28;20029;-68
2022/04/16 06:54:12;;;;;;;7.65;1.20;;;21.30;99.90;;;;;;5026730;28;20064;-68
2022/04/16 06:56:40;;;;;;;3.78;0.70;;;21.30;99.90;;;;;;5020059;28;20466;-68
2022/04/16 06:59:10;;;;;;;5.00;1.00;;;21.20;99.90;;;;;;5023653;28;20474;-68
2022/04/16 07:01:37;;;;;;;7.15;1.13;;;21.20;99.90;;;;;;5031175;28;20086;-68
2022/04/16 07:04:04;;;;;;;5.38;1.23;;;21.20;99.90;;;;;;5029774;28;20488;-68
2022/04/16 07:06:32;;;;;;;4.75;1.08;;;21.20;99.90;;;;;;5020110;28;20017;-68
2022/04/16 07:08:59;;;;;;;4.97;0.95;;;21.10;99.90;;;;;;5019732;28;20297;-69
2022/04/16 07:11:26;;;;;;;7.07;1.63;;;21.00;99.90;;;;;;5025185;28;20111;-68
2022/04/16 07:13:53;;;;;;;6.53;1.15;;;21.00;99.90;;;;;;5029213;28;20041;-69
2022/04/16 07:16:21;;;;;;;5.97;1.77;;;20.90;99.90;;;;;;5026115;28;20120;-69
2022/04/16 07:18:48;;;;;;;5.28;1.55;;;20.80;99.90;;;;;;5031501;28;20033;-69
2022/04/16 07:21:15;;;;;;;9.30;1.42;;;20.70;99.90;;;;;;5014333;28;20116;-69
2022/04/16 07:23:43;;;;;;;5.63;1.45;;;20.70;99.90;;;;;;5024562;28;20363;-69
2022/04/16 07:26:10;;;;;;;9.45;1.20;;;20.70;99.90;;;;;;5032786;28;20033;-69
2022/04/16 07:28:37;;;;;;;2.85;1.05;;;20.70;99.90;;;;;;5015533;28;20028;-69
2022/04/16 07:31:05;;;;;;;5.70;1.80;;;20.60;99.90;;;;;;5026601;28;20022;-69
2022/04/16 07:33:32;;;;;;;6.25;2.30;;;20.60;99.90;;;;;;5025191;28;20026;-70
2022/04/16 07:35:59;;;;;;;5.28;1.33;;;20.60;99.90;;;;;;5023133;28;20108;-69
2022/04/16 07:38:27;;;;;;;4.20;1.23;;;20.50;99.90;;;;;;5028546;28;20030;-69
2022/04/16 07:40:54;;;;;;;5.30;1.80;;;20.50;99.90;;;;;;5029114;28;20041;-69
2022/04/16 07:43:22;;;;;;;6.75;1.50;;;20.50;99.90;;;;;;5017663;28;20390;-69
2022/04/16 07:45:49;;;;;;;3.28;1.42;;;20.40;99.90;;;;;;5032741;28;20394;-69
2022/04/16 07:48:16;;;;;;;10.05;1.73;;;20.40;99.90;;;;;;5018706;28;20030;-69
2022/04/16 07:50:44;;;;;;;6.57;1.40;;;20.30;99.90;;;;;;5031467;28;20006;-69
2022/04/16 07:53:11;;;;;;;7.93;1.70;;;20.20;99.90;;;;;;5030248;28;20033;-69
2022/04/16 07:55:39;;;;;;;3.92;1.40;;;20.10;99.90;;;;;;5029193;28;20042;-69
2022/04/16 07:58:06;;;;;;;3.10;1.27;;;20.10;99.90;;;;;;5030889;28;20025;-69
2022/04/16 08:00:34;;;;;;;4.45;1.85;;;20.00;99.90;;;;;;5023217;28;20030;-69
2022/04/16 08:03:01;;;;;;;9.85;1.95;;;19.90;99.90;;;;;;5031636;28;20025;-69
2022/04/16 08:05:28;;;;;;;7.20;1.67;;;19.90;99.90;;;;;;5032352;28;20448;-69
2022/04/16 08:07:56;;;;;;;5.32;1.58;;;19.90;99.90;;;;;;5026448;28;20502;-69
2022/04/16 08:10:23;;;;;;;6.32;1.85;;;19.90;99.90;;;;;;5030321;28;20053;-69
2022/04/16 08:12:50;;;;;;;5.20;2.15;;;19.90;99.90;;;;;;5034033;28;20083;-69
2022/04/16 08:15:18;;;;;;;6.40;1.75;;;19.90;99.90;;;;;;5032234;28;20008;-69
2022/04/16 08:17:45;;;;;;;5.15;1.70;;;19.90;99.90;;;;;;5028984;28;20037;-69
2022/04/16 08:20:13;;;;;;;5.65;1.80;;;19.80;99.90;;;;;;5020151;28;20044;-69
2022/04/16 08:22:46;;;;;;;6.63;2.00;;;19.80;99.90;;;;;;5005995;28;20042;-69
2022/04/16 08:27:52;;;;;;;5.85;2.30;;;19.70;99.90;;;;;;5027370;28;20056;-69
2022/04/16 08:30:21;;;;;;;7.28;2.38;;;19.70;99.90;;;;;;5018245;28;20042;-69
2022/04/16 08:32:49;;;;;;;5.80;2.47;;;19.70;99.90;;;;;;5030860;28;20064;-69
2022/04/16 08:35:17;;;;;;;8.82;2.83;;;19.70;99.90;;;;;;5033548;28;20061;-69
2022/04/16 08:37:45;;;;;;;7.72;2.92;;;19.60;99.90;;;;;;5030982;28;20104;-69
2022/04/16 08:40:13;;;;;;;8.27;2.70;;;19.60;99.90;;;;;;5029980;28;20393;-71
2022/04/16 08:42:42;;;;;;;9.73;2.67;;;19.60;99.90;;;;;;5028258;28;20105;-70
2022/04/16 08:45:11;;;;;;;5.50;2.80;;;19.50;99.90;;;;;;5040758;28;20025;-71
2022/04/16 08:47:40;;;;;;;4.88;2.55;;;19.50;99.90;;;;;;5031542;28;20029;-70
2022/04/16 08:50:09;;;;;;;4.90;2.25;;;19.50;99.90;;;;;;5040370;28;20036;-70
2022/04/16 08:52:39;;;;;;;8.85;2.28;;;19.40;99.90;;;;;;5034447;28;20025;-69
2022/04/16 08:55:12;;;;;;;6.07;2.03;;;19.40;99.90;;;;;;5023610;28;20034;-69
2022/04/16 08:57:41;;;;;;;7.68;2.95;;;19.30;99.90;;;;;;5031383;28;20025;-69
2022/04/16 09:00:09;;;;;;;7.63;2.83;;;19.30;99.90;;;;;;5037647;28;20485;-69
2022/04/16 09:02:36;;;;;;;6.90;2.75;;;19.30;99.90;;;;;;5035175;28;20030;-69
2022/04/16 09:05:09;;;;;;;10.07;3.53;;;19.20;99.90;;;;;;5031180;28;20079;-69
2022/04/16 09:07:48;;;;;;;7.50;2.90;;;19.20;99.90;;;;;;5037467;28;20060;-69
2022/04/16 09:10:16;;;;;;;4.25;2.60;;;19.10;99.90;;;;;;5031731;28;20028;-69
2022/04/16 09:12:45;;;;;;;6.47;2.35;;;19.10;99.90;;;;;;5025462;28;20140;-69
2022/04/16 09:15:14;;;;;;;6.38;2.58;;;19.10;99.90;;;;;;5038361;28;20079;-69
2022/04/16 09:17:42;;;;;;;4.45;2.70;;;19.00;99.90;;;;;;5031895;28;20564;-69
2022/04/16 09:20:16;;;;;;;12.38;2.90;;;19.00;99.90;;;;;;5035481;28;20108;-69
2022/04/16 09:22:49;;;;;;;6.68;2.60;;;19.00;99.90;;;;;;5033088;28;20441;-69
2022/04/16 09:25:20;;;;;;;9.75;3.67;;;19.00;99.90;;;;;;5034178;28;20393;-69
2022/04/16 09:27:49;;;;;;;6.70;3.53;;;18.90;99.90;;;;;;5018033;28;20017;-69
2022/04/16 09:30:31;;;;;;;9.63;3.95;;;18.90;99.90;;;;;;5033020;28;20022;-68
2022/04/16 09:33:00;;;;;;;11.40;4.15;;;18.80;99.90;;;;;;5022254;28;20080;-68
2022/04/16 09:35:35;;;;;;;8.60;4.93;;;18.80;99.90;;;;;;5025137;28;20506;-68
2022/04/16 09:38:07;;;;;;;10.18;4.90;;;18.80;99.90;;;;;;5051307;28;20047;-69
2022/04/16 09:40:35;;;;;;;7.78;4.47;;;18.80;99.90;;;;;;5058923;28;20033;-69
2022/04/16 09:43:07;;;;;;;10.55;4.40;;;18.70;99.90;;;;;;5040242;28;20112;-69
2022/04/16 09:45:38;;;;;;;8.80;4.75;;;18.80;99.90;;;;;;5031588;28;20029;-69
2022/04/16 09:48:11;;;;;;;7.15;3.75;;;18.70;99.90;;;;;;5036749;28;20115;-69
2022/04/16 09:50:41;;;;;;;11.27;4.47;;;18.70;99.90;;;;;;5053752;28;20427;-69
2022/04/16 09:53:10;;;;;;;9.93;3.60;;;18.70;99.90;;;;;;5033173;28;20037;-69
2022/04/16 09:55:39;;;;;;;6.47;3.42;;;18.70;99.90;;;;;;5038005;28;20032;-69
2022/04/16 09:58:08;;;;;;;11.38;3.58;;;18.70;99.90;;;;;;5045950;28;20021;-69
2022/04/16 10:00:38;;;;;;;9.07;4.07;;;18.70;99.90;;;;;;5054169;28;20115;-69
2022/04/16 10:03:10;;;;;;;11.00;3.50;;;18.60;99.90;;;;;;5037299;28;20051;-69
2022/04/16 10:05:38;;;;;;;9.20;4.28;;;18.60;99.90;;;;;;5036564;28;20489;-69
2022/04/16 10:08:07;;;;;;;7.10;3.60;;;18.60;99.90;;;;;;5053072;28;20090;-69
2022/04/16 10:10:42;;;;;;;7.07;3.70;;;18.70;99.90;;;;;;5053517;28;20088;-69
2022/04/16 10:13:12;;;;;;;9.52;4.22;;;18.70;99.90;;;;;;5028713;28;20033;-69
2022/04/16 10:15:57;;;;;;;8.98;3.63;;;18.60;99.90;;;;;;5046934;28;20029;-69
2022/04/16 10:18:26;;;;;;;3.65;2.55;;;18.60;99.90;;;;;;5033492;28;20025;-69
2022/04/16 10:21:01;;;;;;;5.63;2.67;;;18.60;99.90;;;;;;5034104;28;20056;-68
2022/04/16 10:23:28;;;;;;;8.77;3.58;;;18.60;99.90;;;;;;5053981;28;20040;-69
2022/04/16 10:26:05;;;;;;;6.57;3.45;;;18.60;99.90;;;;;;5055466;28;20035;-69
2022/04/16 10:28:57;;;;;;;9.65;3.42;;;18.60;99.90;;;;;;5050428;28;20021;-69
2022/04/16 10:31:29;;;;;;;7.68;4.10;;;18.60;99.90;;;;;;5038890;28;20167;-69
2022/04/16 10:34:19;;;;;;;8.75;4.05;;;18.60;99.90;;;;;;5030553;28;20449;-69
2022/04/16 10:36:52;;;;;;;8.63;4.30;;;18.60;99.90;;;;;;5051010;28;20032;-69
2022/04/16 10:39:27;;;;;;;7.00;4.15;;;18.80;99.90;;;;;;5039601;28;20029;-69
2022/04/16 10:41:55;;;;;;;10.52;4.70;;;18.90;99.90;;;;;;5051713;28;20029;-69
2022/04/16 10:44:24;;;;;;;5.30;3.72;;;18.90;99.90;;;;;;5035185;28;20037;-69
2022/04/16 10:46:54;;;;;;;7.80;4.63;;;18.90;99.90;;;;;;5055644;28;20393;-67
2022/04/16 10:49:27;;;;;;;6.43;4.10;;;18.90;99.90;;;;;;5055383;28;20078;-66
2022/04/16 10:51:58;;;;;;;7.63;4.03;;;18.80;99.90;;;;;;5051340;28;20025;-66
2022/04/16 10:54:34;;;;;;;8.18;4.03;;;18.80;99.90;;;;;;5051258;28;20074;-66
2022/04/16 10:57:08;;;;;;;5.57;4.38;;;18.80;99.90;;;;;;5050187;28;20032;-66
2022/04/16 10:59:43;;;;;;;10.45;3.72;;;18.80;99.90;;;;;;5050674;28;20032;-66
2022/04/16 11:02:23;;;;;;;8.98;4.53;;;18.90;99.90;;;;;;5015113;28;20025;-66
2022/04/16 11:05:07;;;;;;;8.10;4.35;;;18.90;99.90;;;;;;5062821;28;20036;-66
2022/04/16 11:07:35;;;;;;;;;;;18.90;99.90;;;;;;5030031;28;20033;-66
2022/04/16 11:10:09;;;;;;;7.85;3.83;;;18.90;99.90;;;;;;5020484;28;19909;-66
2022/04/16 11:12:41;;;;;;;7.55;3.80;;;18.80;99.90;;;;;;5051733;28;20441;-66
2022/04/16 11:15:19;;;;;;;8.05;3.78;;;18.80;99.90;;;;;;5030721;28;20056;-66
2022/04/16 11:17:46;;;;;;;7.45;4.68;;;18.70;99.90;;;;;;5043777;28;20021;-67
2022/04/16 11:20:13;;;;;;;12.45;5.35;;;18.70;99.90;;;;;;5038114;28;20113;-67
2022/04/16 11:22:46;;;;;;;9.10;4.30;;;18.70;99.90;;;;;;5049878;28;20029;-67
2022/04/16 11:25:14;;;;;;;7.95;4.70;;;18.70;99.90;;;;;;5045120;28;20558;-69
2022/04/16 11:35:59;;;;;;;10.70;4.40;;;18.60;99.90;;;;;;5050337;28;20036;-68
2022/04/16 11:38:31;;;;;;;6.75;3.90;;;18.50;99.90;;;;;;5029788;28;20029;-68
2022/04/16 11:41:00;;;;;;;6.03;3.70;;;18.50;99.90;;;;;;5031417;28;20036;-67
2022/04/16 11:43:28;;;;;;;6.72;3.90;;;18.40;99.90;;;;;;5037819;28;20029;-68
2022/04/16 11:45:56;;;;;;;9.00;3.95;;;18.40;99.90;;;;;;5049184;28;20417;-68
2022/04/16 11:48:24;;;;;;;5.10;3.67;;;18.30;99.90;;;;;;5046806;28;20029;-68
2022/04/16 11:50:52;;;;;;;5.45;3.88;;;18.20;99.90;;;;;;5049726;28;20029;-68
2022/04/16 11:53:19;;;;;;;10.15;4.93;;;18.20;99.90;;;;;;5037493;28;20029;-68
2022/04/16 11:55:51;;;;;;;7.38;4.43;;;18.20;99.90;;;;;;5029823;28;20021;-68
2022/04/16 11:58:26;;;;;;;7.38;3.83;;;18.10;99.90;;;;;;5045378;28;20496;-68
2022/04/16 12:00:59;;;;;;;6.82;4.45;;;18.10;99.90;;;;;;5027206;28;20112;-68
2022/04/16 12:03:44;;;;;;;10.25;4.05;;;18.00;99.90;;;;;;5047018;28;20092;-68
2022/04/16 12:06:13;;;;;;;7.75;4.05;;;18.00;99.90;;;;;;5031357;28;20093;-68
2022/04/16 12:08:41;;;;;;;8.23;3.92;;;18.00;99.90;;;;;;5025429;28;20354;-68
2022/04/16 12:11:10;;;;;;;9.73;4.43;;;17.90;99.90;;;;;;5052262;28;20040;-68
2022/04/16 12:13:39;;;;;;;6.28;4.70;;;17.90;99.90;;;;;;5047450;28;20094;-68
2022/04/16 12:16:13;;;;;;;7.50;4.30;;;17.90;99.90;;;;;;5049262;28;20486;-68
2022/04/16 12:18:49;;;;;;;10.93;4.60;;;17.90;99.90;;;;;;5044915;28;20021;-68
2022/04/16 12:21:17;;;;;;;11.30;5.57;;;18.00;99.90;;;;;;5051920;28;20103;-68
2022/04/16 12:23:46;;;;;;;7.43;4.20;;;18.00;99.90;;;;;;5053339;28;20252;-68
2022/04/16 12:26:17;;;;;;;6.97;5.30;;;18.10;99.90;;;;;;5046523;28;20033;-68
2022/04/16 12:28:55;;;;;;;10.38;4.65;;;18.10;99.90;;;;;;5053588;28;20021;-68
2022/04/16 12:31:29;;;;;;;8.50;5.05;;;18.10;99.90;;;;;;5044511;28;20040;-68
2022/04/16 12:33:57;;;;;;;7.65;4.30;;;18.10;99.90;;;;;;5033419;28;20029;-68
2022/04/16 12:36:24;;;;;;;9.13;4.47;;;18.10;99.90;;;;;;5055862;28;20036;-68
2022/04/16 12:38:54;;;;;;;6.85;4.60;;;18.10;99.90;;;;;;5053271;28;20053;-68
2022/04/16 12:41:21;;;;;;;8.45;4.53;;;18.20;99.90;;;;;;5056836;28;20025;-68
2022/04/16 12:43:48;;;;;;;9.00;5.00;;;18.10;99.90;;;;;;5050312;28;20025;-68
2022/04/16 12:46:16;;;;;;;14.50;5.65;;;18.20;99.90;;;;;;5046280;28;20513;-68
2022/04/16 12:48:43;;;;;;;8.77;5.50;;;18.20;99.90;;;;;;5038668;28;20384;-68
2022/04/16 12:51:13;;;;;;;13.57;6.90;;;18.20;99.90;;;;;;5056979;28;20017;-68
2022/04/16 12:53:41;;;;;;;11.23;5.53;;;18.20;99.90;;;;;;5055177;28;20055;-67
2022/04/16 12:56:08;;;;;;;9.98;5.30;;;18.10;99.90;;;;;;5056153;28;20021;-68
2022/04/16 12:58:35;;;;;;;7.47;4.80;;;18.00;99.90;;;;;;5056092;28;20136;-68
2022/04/16 13:01:02;;;;;;;10.38;4.68;;;17.80;99.90;;;;;;5056698;28;20029;-68
2022/04/16 13:03:30;;;;;;;7.97;4.35;;;17.80;99.90;;;;;;5054650;28;20029;-68
2022/04/16 13:05:57;;;;;;;7.68;4.78;;;17.70;99.90;;;;;;5050207;28;20112;-68
2022/04/16 13:08:25;;;;;;;9.35;4.72;;;17.70;99.90;;;;;;5047802;28;20024;-68
2022/04/16 13:10:53;;;;;;;10.13;4.55;;;17.60;99.90;;;;;;5054541;28;20021;-67
2022/04/16 13:13:20;;;;;;;10.60;5.78;;;17.60;99.90;;;;;;5041440;28;20087;-68
2022/04/16 13:15:47;;;;;;;8.45;6.10;;;17.60;99.90;;;;;;5050375;28;20127;-68
2022/04/16 13:18:16;;;;;;;14.18;7.00;;;17.60;99.90;;;;;;5048907;28;20029;-68
2022/04/16 13:20:44;;;;;;;13.32;7.55;;;17.60;99.90;;;;;;5052037;28;20048;-68